Time;durP1;ratioP1;P1;durP2;ratioP2;P2;SDS_P1;SDS_P2;PMS_P1;PMS_P2;Temp;Humidity;BMP_temperature;BMP_pressure;BME280_temperature;BME280_humidity;BME280_pressure;Samples;Min_cycle;Max_cycle;Signal;HPM_P1;HPM_P2
2022/12/20 00:01:24;;;;;;;5.65;1.80;;;11.50;84.80;;;;;;5136702;28;20047;-75
2022/12/20 00:03:51;;;;;;;1.27;0.90;;;11.50;84.50;;;;;;5135575;28;20016;-75
2022/12/20 00:06:17;;;;;;;3.13;1.92;;;11.50;84.10;;;;;;5135633;28;20047;-75
2022/12/20 00:08:42;;;;;;;3.80;1.88;;;11.60;83.90;;;;;;5134328;28;20020;-75
2022/12/20 00:11:09;;;;;;;3.90;1.77;;;11.60;84.00;;;;;;5136283;28;20058;-75
2022/12/20 00:13:35;;;;;;;2.80;1.45;;;11.50;83.70;;;;;;5136450;28;20170;-76
2022/12/20 00:16:07;;;;;;;2.97;1.63;;;11.50;84.60;;;;;;5135487;28;20015;-75
2022/12/20 00:18:33;;;;;;;2.47;0.98;;;11.50;83.70;;;;;;5136378;28;20028;-75
2022/12/20 00:21:00;;;;;;;2.08;1.23;;;11.50;83.60;;;;;;5135360;28;20024;-75
2022/12/20 00:23:28;;;;;;;2.58;1.73;;;11.60;83.20;;;;;;5136246;28;20068;-75
2022/12/20 00:26:02;;;;;;;2.50;1.60;;;11.60;83.50;;;;;;5135197;28;20016;-75
2022/12/20 00:28:27;;;;;;;2.13;1.55;;;11.60;83.30;;;;;;5136241;28;20028;-75
2022/12/20 00:30:54;;;;;;;3.97;1.60;;;11.60;83.30;;;;;;5136075;28;20027;-75
2022/12/20 00:33:19;;;;;;;3.63;2.00;;;11.70;83.30;;;;;;5136072;28;20023;-75
2022/12/20 00:35:45;;;;;;;2.35;1.55;;;11.70;83.30;;;;;;5135994;28;20149;-75
2022/12/20 00:38:11;;;;;;;2.42;1.23;;;11.70;83.10;;;;;;5135140;28;20058;-75
2022/12/20 00:40:36;;;;;;;3.60;1.88;;;11.70;83.10;;;;;;5135897;28;20091;-75
2022/12/20 00:43:02;;;;;;;1.75;1.58;;;11.70;82.80;;;;;;5135867;28;20049;-75
2022/12/20 00:45:27;;;;;;;1.00;0.90;;;11.70;82.80;;;;;;5134936;28;20079;-75
2022/12/20 00:47:53;;;;;;;4.57;1.70;;;11.70;82.50;;;;;;5135665;28;20038;-75
2022/12/20 00:50:19;;;;;;;4.75;1.73;;;11.80;82.50;;;;;;5135744;28;20019;-75
2022/12/20 00:52:44;;;;;;;3.60;1.38;;;11.80;82.20;;;;;;5134768;28;20032;-75
2022/12/20 00:55:10;;;;;;;2.85;1.50;;;11.80;82.30;;;;;;5135597;28;20039;-75
2022/12/20 00:57:35;;;;;;;2.90;1.30;;;11.80;82.40;;;;;;5117530;28;20023;-75
2022/12/20 01:00:01;;;;;;;3.30;1.50;;;11.80;82.10;;;;;;5135513;28;20032;-75
2022/12/20 01:02:27;;;;;;;3.42;1.70;;;11.90;82.00;;;;;;5134497;28;20047;-75
2022/12/20 01:04:52;;;;;;;2.95;1.40;;;11.90;82.00;;;;;;5134520;28;20084;-75
2022/12/20 01:07:19;;;;;;;2.53;1.70;;;11.90;82.10;;;;;;5135488;28;20050;-75
2022/12/20 01:09:44;;;;;;;3.25;1.90;;;11.90;82.00;;;;;;5135124;28;20039;-75
2022/12/20 01:12:10;;;;;;;1.33;0.98;;;11.90;81.90;;;;;;5134352;28;20028;-75
2022/12/20 01:14:35;;;;;;;3.22;1.20;;;11.90;82.00;;;;;;5135380;28;20031;-75
2022/12/20 01:17:01;;;;;;;3.95;1.35;;;11.90;81.80;;;;;;5134312;28;20024;-75
2022/12/20 01:19:27;;;;;;;2.90;1.48;;;11.90;81.50;;;;;;5135097;28;20111;-75
2022/12/20 01:21:52;;;;;;;3.92;1.90;;;12.00;81.60;;;;;;5134978;28;20096;-75
2022/12/20 01:24:19;;;;;;;3.20;1.42;;;12.00;81.50;;;;;;5135034;28;20047;-75
2022/12/20 01:26:45;;;;;;;1.67;1.45;;;12.00;82.10;;;;;;5134027;28;20024;-75
2022/12/20 01:29:11;;;;;;;2.53;1.45;;;12.00;82.50;;;;;;5134828;28;20072;-75
2022/12/20 01:31:37;;;;;;;2.67;1.80;;;12.00;83.20;;;;;;5133908;28;20023;-75
2022/12/20 01:34:02;;;;;;;3.10;1.67;;;12.00;84.20;;;;;;5133949;28;20058;-75
2022/12/20 01:36:31;;;;;;;2.45;1.40;;;11.90;84.90;;;;;;5134841;27;20020;-75
2022/12/20 01:39:03;;;;;;;3.38;1.40;;;11.90;84.80;;;;;;5134775;28;20225;-75
2022/12/20 01:41:30;;;;;;;4.20;1.60;;;11.90;85.50;;;;;;5134798;28;20051;-75
2022/12/20 01:43:58;;;;;;;3.28;1.40;;;11.80;85.40;;;;;;5134812;28;20071;-75
2022/12/20 01:46:27;;;;;;;2.92;1.83;;;11.80;85.30;;;;;;5134671;28;20028;-75
2022/12/20 01:49:12;;;;;;;2.28;1.35;;;11.80;85.80;;;;;;5133738;28;20036;-75
2022/12/20 01:51:42;;;;;;;2.83;1.83;;;11.80;86.70;;;;;;5133564;28;20020;-75
2022/12/20 01:54:34;;;;;;;2.33;1.58;;;11.70;87.60;;;;;;5134566;28;20019;-75
2022/12/20 01:57:03;;;;;;;2.42;1.42;;;11.70;89.70;;;;;;5125638;28;20517;-75
2022/12/20 01:59:33;;;;;;;2.20;1.35;;;11.70;90.40;;;;;;5134412;28;20023;-75
2022/12/20 02:02:04;;;;;;;3.42;1.70;;;11.60;90.60;;;;;;5134430;28;20019;-75
2022/12/20 02:04:29;;;;;;;3.00;1.20;;;11.50;91.10;;;;;;5134395;28;20079;-75
2022/12/20 02:06:56;;;;;;;3.33;1.73;;;11.50;91.60;;;;;;5134275;28;20031;-75
2022/12/20 02:09:23;;;;;;;2.63;1.23;;;11.40;92.00;;;;;;5116184;28;20043;-75
2022/12/20 02:12:09;;;;;;;3.25;2.05;;;11.40;92.30;;;;;;5133332;28;20047;-75
2022/12/20 02:14:37;;;;;;;3.50;1.65;;;11.30;92.60;;;;;;5134189;28;20026;-75
2022/12/20 02:17:24;;;;;;;3.10;1.90;;;11.30;92.70;;;;;;5134139;28;20024;-75
2022/12/20 02:20:06;;;;;;;3.75;1.48;;;11.30;92.90;;;;;;5134174;28;20039;-75
2022/12/20 02:22:51;;;;;;;;;;;11.20;93.00;;;;;;5134600;28;20047;-75
2022/12/20 02:25:41;;;;;;;2.75;1.58;;;11.20;93.10;;;;;;5134061;28;19907;-75
2022/12/20 02:28:27;;;;;;;2.05;1.58;;;11.10;93.30;;;;;;5132983;28;20050;-75
2022/12/20 02:30:54;;;;;;;3.08;1.58;;;11.10;93.50;;;;;;5133027;28;20019;-74
2022/12/20 02:33:23;;;;;;;3.00;1.90;;;11.10;93.60;;;;;;5133486;28;20087;-75
2022/12/20 02:35:49;;;;;;;3.97;1.73;;;11.10;93.70;;;;;;5133971;28;20019;-75
2022/12/20 02:38:30;;;;;;;3.33;1.60;;;11.00;93.70;;;;;;5133919;28;20410;-75
2022/12/20 02:41:13;;;;;;;4.95;1.92;;;11.00;93.80;;;;;;5133992;28;20034;-75
2022/12/20 02:46:28;;;;;;;6.70;1.83;;;11.10;93.50;;;;;;5134118;28;20552;-75
2022/12/20 02:49:00;;;;;;;3.75;2.20;;;11.10;93.40;;;;;;5133768;28;20031;-75
2022/12/20 02:51:28;;;;;;;10.52;2.10;;;11.10;93.50;;;;;;5133904;28;20045;-75
2022/12/20 02:53:54;;;;;;;3.85;2.10;;;11.10;93.40;;;;;;5133815;28;20016;-75
2022/12/20 02:56:32;;;;;;;5.13;2.03;;;11.10;93.30;;;;;;5133792;28;20024;-75
2022/12/20 02:59:03;;;;;;;6.05;2.08;;;11.10;93.20;;;;;;5133883;28;20039;-75
2022/12/20 03:01:53;;;;;;;2.70;1.25;;;11.10;93.00;;;;;;5133757;28;20081;-75
2022/12/20 03:04:22;;;;;;;4.03;1.90;;;11.10;92.90;;;;;;5133705;28;20027;-75
2022/12/20 03:07:03;;;;;;;6.93;1.65;;;11.10;92.70;;;;;;5132748;28;20100;-75
2022/12/20 03:09:31;;;;;;;2.80;1.88;;;11.10;92.50;;;;;;5133290;28;20072;-75
2022/12/20 03:11:56;;;;;;;2.05;1.40;;;11.30;92.30;;;;;;5132641;28;20035;-75
2022/12/20 03:14:22;;;;;;;3.65;1.85;;;11.30;92.10;;;;;;5133609;28;20053;-75
2022/12/20 03:16:48;;;;;;;3.00;1.27;;;11.20;92.00;;;;;;5133713;28;20079;-75
2022/12/20 03:19:13;;;;;;;2.08;1.40;;;11.30;91.80;;;;;;5133538;28;20038;-75
2022/12/20 03:21:39;;;;;;;3.00;1.73;;;11.30;91.60;;;;;;5133511;28;20099;-75
2022/12/20 03:24:05;;;;;;;2.83;1.05;;;11.30;91.50;;;;;;5133525;28;20045;-75
2022/12/20 03:26:31;;;;;;;2.85;1.48;;;11.30;91.40;;;;;;5133465;28;20095;-75
2022/12/20 03:28:56;;;;;;;3.22;1.65;;;11.40;91.30;;;;;;5133361;28;20020;-75
2022/12/20 03:31:22;;;;;;;2.92;1.90;;;11.30;91.10;;;;;;5115534;28;20110;-75
2022/12/20 03:33:48;;;;;;;3.05;1.48;;;11.40;91.00;;;;;;5132610;28;20034;-75
2022/12/20 03:36:13;;;;;;;2.55;1.27;;;11.50;90.90;;;;;;5133381;28;20024;-75
2022/12/20 03:38:39;;;;;;;5.68;1.50;;;11.50;90.70;;;;;;5133392;28;20027;-75
2022/12/20 03:41:05;;;;;;;2.55;1.45;;;11.50;90.50;;;;;;5132446;28;20028;-75
2022/12/20 03:43:30;;;;;;;5.63;1.88;;;11.50;90.50;;;;;;5132386;28;20036;-74
2022/12/20 03:45:56;;;;;;;3.58;1.92;;;11.60;90.50;;;;;;5136965;28;20055;-75
2022/12/20 03:48:22;;;;;;;4.93;2.00;;;11.60;90.40;;;;;;5136887;27;20075;-75
2022/12/20 03:50:47;;;;;;;3.38;1.88;;;11.60;90.30;;;;;;5136945;28;20024;-75
2022/12/20 03:53:13;;;;;;;3.70;2.08;;;11.70;90.20;;;;;;5136957;28;20036;-75
2022/12/20 03:55:39;;;;;;;3.15;1.75;;;11.70;90.10;;;;;;5136757;28;20024;-75
2022/12/20 03:58:04;;;;;;;3.75;1.85;;;11.70;90.10;;;;;;5118798;28;20119;-75
2022/12/20 04:00:30;;;;;;;2.55;1.80;;;11.70;90.00;;;;;;5136702;28;20036;-75
2022/12/20 04:02:55;;;;;;;3.78;1.65;;;11.80;89.50;;;;;;5136840;28;20031;-75
2022/12/20 04:05:21;;;;;;;2.65;1.40;;;11.80;89.60;;;;;;5136636;28;20031;-75
2022/12/20 04:07:47;;;;;;;7.93;1.55;;;11.80;89.40;;;;;;5136435;28;20498;-75
2022/12/20 04:10:12;;;;;;;4.13;1.58;;;11.90;89.30;;;;;;5136344;28;20059;-75
2022/12/20 04:12:38;;;;;;;3.15;1.33;;;11.90;89.10;;;;;;5136437;28;20083;-75
2022/12/20 04:15:04;;;;;;;1.77;1.13;;;12.00;89.10;;;;;;5136424;28;20087;-75
2022/12/20 04:17:30;;;;;;;2.75;1.60;;;12.00;88.80;;;;;;5136404;28;20027;-75
2022/12/20 04:19:55;;;;;;;2.65;1.17;;;12.00;88.70;;;;;;5136320;28;20034;-75
2022/12/20 04:22:21;;;;;;;2.15;1.13;;;12.00;88.30;;;;;;5135259;28;20053;-75
2022/12/20 04:24:46;;;;;;;2.40;1.33;;;12.10;88.40;;;;;;5136255;28;20038;-75
2022/12/20 04:27:12;;;;;;;2.72;1.23;;;12.10;88.10;;;;;;5136214;28;20024;-74
2022/12/20 04:29:37;;;;;;;2.38;1.33;;;12.10;88.20;;;;;;5135139;28;20040;-75
2022/12/20 04:32:03;;;;;;;2.80;1.65;;;12.10;87.80;;;;;;5136222;28;20072;-75
2022/12/20 04:34:29;;;;;;;2.88;1.30;;;12.10;87.90;;;;;;5135112;28;20027;-75
2022/12/20 04:36:55;;;;;;;5.82;2.25;;;12.20;87.70;;;;;;5136020;28;20112;-75
2022/12/20 04:39:20;;;;;;;3.75;2.10;;;12.20;87.70;;;;;;5135949;28;20035;-75
2022/12/20 04:41:46;;;;;;;4.60;1.60;;;12.20;87.70;;;;;;5135895;28;20054;-75
2022/12/20 04:44:11;;;;;;;2.22;1.38;;;12.20;87.60;;;;;;5134876;28;20031;-75
2022/12/20 04:46:37;;;;;;;1.75;1.15;;;12.20;87.60;;;;;;5135828;28;20036;-75
2022/12/20 04:49:03;;;;;;;2.35;1.40;;;12.20;87.50;;;;;;5135733;28;20027;-75
2022/12/20 04:51:28;;;;;;;2.70;1.38;;;12.20;88.60;;;;;;5134833;28;20024;-75
2022/12/20 04:53:55;;;;;;;2.58;1.70;;;12.20;88.00;;;;;;5135795;28;20457;-75
2022/12/20 04:56:23;;;;;;;2.72;0.90;;;12.20;87.70;;;;;;5134256;28;20023;-75
2022/12/20 04:58:51;;;;;;;4.75;1.05;;;12.20;87.60;;;;;;5135574;28;20102;-75
2022/12/20 05:01:17;;;;;;;2.75;1.50;;;12.20;87.50;;;;;;5134491;28;20024;-74
2022/12/20 05:03:44;;;;;;;3.30;1.80;;;12.20;87.60;;;;;;5135486;28;20023;-75
2022/12/20 05:06:10;;;;;;;2.05;1.10;;;12.20;88.40;;;;;;5135434;28;20023;-74
2022/12/20 05:08:36;;;;;;;3.13;1.65;;;12.20;87.50;;;;;;5135253;28;20038;-75
2022/12/20 05:11:03;;;;;;;3.17;1.20;;;12.20;87.60;;;;;;5135065;28;20039;-75
2022/12/20 05:13:28;;;;;;;1.85;1.13;;;12.20;87.90;;;;;;5135267;28;20023;-75
2022/12/20 05:15:56;;;;;;;2.90;1.88;;;12.20;87.70;;;;;;5135071;28;20027;-74
2022/12/20 05:18:22;;;;;;;2.30;1.58;;;12.20;87.90;;;;;;5135190;28;20083;-74
2022/12/20 05:26:15;;;;;;;3.17;1.67;;;12.20;88.10;;;;;;5135094;28;20039;-75
2022/12/20 05:26:18;;;;;;;4.10;1.60;;;12.20;88.10;;;;;;5135153;28;20046;-74
2022/12/20 05:28:44;;;;;;;4.00;1.35;;;12.20;88.40;;;;;;5134960;28;20047;-75
2022/12/20 05:31:09;;;;;;;4.60;1.92;;;12.20;88.50;;;;;;5133969;28;20038;-75
2022/12/20 05:33:35;;;;;;;2.00;1.40;;;12.20;88.70;;;;;;5134856;28;20041;-74
2022/12/20 05:36:01;;;;;;;2.35;1.48;;;12.20;89.60;;;;;;5134837;28;20034;-74
2022/12/20 05:38:26;;;;;;;3.55;1.42;;;12.20;88.70;;;;;;5134803;28;20031;-74
2022/12/20 05:40:52;;;;;;;2.88;1.58;;;12.20;88.80;;;;;;5133678;28;20055;-74
2022/12/20 05:43:19;;;;;;;2.50;1.52;;;12.20;89.90;;;;;;5134692;28;20035;-74
2022/12/20 05:45:47;;;;;;;2.90;1.70;;;12.20;89.20;;;;;;5134709;28;20027;-74
2022/12/20 05:48:13;;;;;;;4.32;1.70;;;12.20;89.20;;;;;;5133673;28;20034;-74
2022/12/20 05:50:38;;;;;;;2.33;1.58;;;12.20;89.10;;;;;;5134593;28;20031;-73
2022/12/20 05:53:04;;;;;;;4.10;1.67;;;12.20;89.10;;;;;;5133518;28;20027;-74
2022/12/20 05:55:30;;;;;;;1.75;1.40;;;12.10;89.30;;;;;;5134507;28;20024;-74
2022/12/20 05:57:56;;;;;;;1.95;1.30;;;12.10;89.40;;;;;;5133428;28;20052;-74
2022/12/20 06:00:22;;;;;;;2.28;1.33;;;12.10;89.60;;;;;;5134415;28;20024;-74
2022/12/20 06:02:47;;;;;;;9.38;1.85;;;12.10;89.30;;;;;;5134229;28;20028;-74
2022/12/20 06:05:13;;;;;;;3.97;1.65;;;12.10;89.60;;;;;;5133445;28;20039;-74
2022/12/20 06:07:39;;;;;;;5.10;2.45;;;12.10;89.90;;;;;;5133420;28;20047;-74
2022/12/20 06:10:06;;;;;;;2.20;1.42;;;12.10;89.80;;;;;;5134085;28;20055;-74
2022/12/20 06:12:33;;;;;;;1.80;1.20;;;12.10;89.80;;;;;;5116374;28;20049;-74
2022/12/20 06:14:59;;;;;;;1.20;1.00;;;12.10;89.60;;;;;;5134372;28;20023;-74
2022/12/20 06:17:25;;;;;;;2.08;1.33;;;12.10;90.00;;;;;;5134184;28;20026;-74
2022/12/20 06:19:50;;;;;;;2.25;1.50;;;12.10;89.80;;;;;;5133147;28;20042;-74
2022/12/20 06:22:16;;;;;;;3.20;1.85;;;12.10;88.90;;;;;;5134213;28;20047;-74
2022/12/20 06:24:41;;;;;;;2.17;1.25;;;12.10;88.50;;;;;;5116140;28;20032;-74
2022/12/20 06:27:07;;;;;;;3.58;1.48;;;12.10;88.20;;;;;;5116046;28;20069;-74
2022/12/20 06:29:32;;;;;;;2.85;1.65;;;12.10;88.10;;;;;;5134073;28;20448;-75
2022/12/20 06:31:59;;;;;;;3.47;1.75;;;12.10;88.10;;;;;;5134065;28;20053;-75
2022/12/20 06:34:24;;;;;;;3.63;1.50;;;12.10;88.00;;;;;;5134010;28;20019;-74
2022/12/20 06:36:50;;;;;;;4.75;2.03;;;12.10;87.90;;;;;;5133962;28;20080;-74
2022/12/20 06:39:16;;;;;;;4.50;1.42;;;12.10;87.80;;;;;;5132898;28;20032;-74
2022/12/20 06:41:41;;;;;;;3.63;1.80;;;12.10;87.70;;;;;;5132938;28;20055;-74
2022/12/20 06:44:07;;;;;;;3.60;1.75;;;12.10;87.70;;;;;;5132886;28;20040;-74
2022/12/20 06:46:33;;;;;;;3.63;1.88;;;12.10;87.60;;;;;;5133974;28;20053;-74
2022/12/20 06:48:58;;;;;;;4.68;2.50;;;12.10;87.40;;;;;;5133764;28;20024;-75
2022/12/20 06:51:24;;;;;;;3.28;1.50;;;12.10;87.20;;;;;;5133827;28;20023;-74
2022/12/20 06:53:50;;;;;;;4.88;1.90;;;12.00;87.10;;;;;;5116066;28;20462;-74
2022/12/20 06:56:15;;;;;;;3.20;1.92;;;11.90;87.00;;;;;;5132674;28;20081;-74
2022/12/20 06:58:43;;;;;;;3.58;1.73;;;11.90;87.20;;;;;;5132771;28;20027;-74
2022/12/20 07:01:09;;;;;;;2.83;1.42;;;11.90;87.00;;;;;;5133725;28;20032;-74
2022/12/20 07:03:35;;;;;;;3.85;2.08;;;11.90;86.90;;;;;;5132764;28;20027;-74
2022/12/20 07:06:00;;;;;;;2.35;2.05;;;11.90;86.70;;;;;;5133592;28;20470;-74
2022/12/20 07:08:26;;;;;;;1.65;1.20;;;11.80;86.50;;;;;;5133430;28;20035;-74
2022/12/20 07:10:55;;;;;;;2.50;1.65;;;11.80;87.40;;;;;;5132373;28;20134;-74
2022/12/20 07:13:21;;;;;;;4.63;1.75;;;11.80;86.70;;;;;;5132652;28;20023;-74
2022/12/20 07:15:47;;;;;;;2.53;1.50;;;11.80;86.30;;;;;;5133587;28;20030;-74
2022/12/20 07:18:13;;;;;;;4.38;1.55;;;11.80;86.20;;;;;;5134660;28;20032;-74
2022/12/20 07:20:39;;;;;;;3.58;1.65;;;11.80;86.20;;;;;;5137525;28;20035;-74
2022/12/20 07:23:05;;;;;;;1.70;1.33;;;11.80;86.00;;;;;;5136745;28;20024;-74
2022/12/20 07:25:30;;;;;;;1.92;1.27;;;11.90;85.80;;;;;;5136359;28;20039;-74
2022/12/20 07:27:56;;;;;;;4.03;1.58;;;11.80;85.50;;;;;;5136364;28;20034;-74
2022/12/20 07:30:22;;;;;;;1.38;1.00;;;11.90;85.80;;;;;;5137317;28;20019;-74
2022/12/20 07:32:48;;;;;;;2.22;0.85;;;11.90;85.20;;;;;;5136355;28;20028;-74
2022/12/20 07:35:14;;;;;;;2.75;1.58;;;11.90;84.90;;;;;;5137198;28;20020;-75
2022/12/20 07:37:40;;;;;;;3.08;1.60;;;11.90;85.00;;;;;;5137139;28;20039;-74
2022/12/20 07:40:07;;;;;;;1.77;1.10;;;11.90;85.30;;;;;;5137154;28;20039;-75
2022/12/20 07:42:33;;;;;;;2.90;1.63;;;11.90;85.10;;;;;;5137258;28;20024;-74
2022/12/20 07:44:59;;;;;;;2.08;1.02;;;11.90;84.90;;;;;;5136022;28;20032;-75
2022/12/20 07:47:24;;;;;;;2.45;0.90;;;11.90;84.90;;;;;;5119051;28;20034;-74
2022/12/20 07:49:50;;;;;;;4.63;1.58;;;12.00;84.70;;;;;;5136834;28;20031;-74
2022/12/20 07:52:20;;;;;;;2.80;1.40;;;12.00;84.80;;;;;;5135814;28;20028;-74
2022/12/20 07:54:50;;;;;;;2.72;1.10;;;11.90;84.80;;;;;;5136873;28;20023;-74
2022/12/20 07:57:22;;;;;;;2.63;1.55;;;11.90;84.50;;;;;;5136879;28;20101;-74
2022/12/20 07:59:53;;;;;;;6.30;1.17;;;11.90;84.60;;;;;;5136811;28;20043;-74
2022/12/20 08:02:25;;;;;;;2.38;1.38;;;11.90;84.30;;;;;;5136760;28;20038;-74
2022/12/20 08:04:52;;;;;;;2.47;1.13;;;11.90;84.30;;;;;;5136714;28;20015;-74
2022/12/20 08:07:17;;;;;;;3.45;1.60;;;11.90;84.70;;;;;;5136608;28;20031;-74
2022/12/20 08:09:44;;;;;;;4.28;1.50;;;12.00;84.30;;;;;;5136077;28;20114;-75
2022/12/20 08:12:12;;;;;;;3.00;1.40;;;12.00;84.30;;;;;;5136576;28;20031;-75
2022/12/20 08:14:39;;;;;;;1.48;1.10;;;12.00;84.20;;;;;;5135522;28;20020;-74
2022/12/20 08:17:04;;;;;;;4.32;1.60;;;12.00;84.40;;;;;;5136412;28;20023;-75
2022/12/20 08:19:30;;;;;;;2.97;1.70;;;12.00;84.30;;;;;;5135462;28;20110;-74
2022/12/20 08:21:56;;;;;;;2.15;1.25;;;12.00;84.10;;;;;;5135332;28;20028;-74
2022/12/20 08:24:21;;;;;;;3.22;1.55;;;12.00;84.20;;;;;;5136271;28;20490;-75
2022/12/20 08:26:47;;;;;;;2.38;1.20;;;12.10;84.40;;;;;;5136241;28;20095;-74
2022/12/20 08:29:12;;;;;;;2.22;1.52;;;12.00;84.60;;;;;;5135719;28;20040;-74
2022/12/20 08:31:41;;;;;;;3.08;1.90;;;12.00;85.40;;;;;;5134795;28;20061;-74
2022/12/20 08:34:06;;;;;;;3.22;1.50;;;12.00;85.80;;;;;;5135132;28;20020;-75
2022/12/20 08:36:32;;;;;;;4.60;1.60;;;12.00;86.30;;;;;;5136001;28;20053;-75
2022/12/20 08:39:00;;;;;;;3.03;1.20;;;11.90;86.40;;;;;;5135031;28;20089;-75
2022/12/20 08:41:26;;;;;;;1.27;0.98;;;11.90;86.80;;;;;;5134909;28;20024;-74
2022/12/20 08:43:52;;;;;;;4.68;1.17;;;11.90;87.20;;;;;;5134957;28;20042;-75
2022/12/20 08:46:17;;;;;;;3.60;1.63;;;11.90;87.30;;;;;;5134858;28;20107;-75
2022/12/20 08:48:43;;;;;;;2.47;1.45;;;11.90;87.70;;;;;;5135614;28;20039;-75
2022/12/20 08:51:09;;;;;;;3.03;1.13;;;11.90;87.70;;;;;;5135741;28;20016;-75
2022/12/20 08:53:36;;;;;;;2.55;1.38;;;11.90;88.10;;;;;;5134724;28;20030;-75
2022/12/20 08:56:08;;;;;;;3.92;1.30;;;11.90;88.30;;;;;;5135607;28;20034;-75
2022/12/20 08:58:35;;;;;;;2.42;1.30;;;11.90;89.30;;;;;;5135680;28;20020;-75
2022/12/20 09:01:02;;;;;;;3.95;1.23;;;11.90;90.00;;;;;;5135405;28;20051;-75
2022/12/20 09:03:30;;;;;;;1.58;1.13;;;11.90;90.00;;;;;;5134601;28;20039;-75
2022/12/20 09:05:56;;;;;;;1.88;1.13;;;11.80;90.20;;;;;;5134669;28;20031;-75
2022/12/20 09:08:22;;;;;;;3.53;1.27;;;11.80;90.30;;;;;;5135330;28;20088;-75
2022/12/20 09:10:48;;;;;;;4.18;1.38;;;11.80;90.40;;;;;;5135170;28;20048;-75
2022/12/20 09:13:13;;;;;;;1.65;1.10;;;11.80;90.30;;;;;;5134343;28;20043;-75
2022/12/20 09:15:39;;;;;;;2.10;1.13;;;11.80;90.60;;;;;;5135253;28;20020;-75
2022/12/20 09:18:05;;;;;;;1.98;1.17;;;11.70;90.70;;;;;;5135183;28;20032;-75
2022/12/20 09:20:31;;;;;;;2.15;1.17;;;11.70;90.80;;;;;;5134191;28;20028;-75
2022/12/20 09:22:58;;;;;;;2.42;1.45;;;11.70;91.20;;;;;;5135098;28;20023;-75
2022/12/20 09:25:25;;;;;;;2.85;1.48;;;11.60;91.20;;;;;;5135119;28;20019;-75
2022/12/20 09:27:52;;;;;;;3.83;1.50;;;11.70;91.20;;;;;;5135064;28;20031;-75
2022/12/20 09:30:17;;;;;;;1.77;1.25;;;11.60;91.20;;;;;;5134969;28;20046;-75
2022/12/20 09:32:43;;;;;;;3.25;1.70;;;11.60;91.30;;;;;;5135080;28;20035;-75
2022/12/20 09:35:09;;;;;;;4.60;1.35;;;11.60;91.50;;;;;;5135043;28;20028;-75
2022/12/20 09:37:34;;;;;;;3.38;1.50;;;11.60;91.50;;;;;;5134049;28;20031;-75
2022/12/20 09:40:00;;;;;;;3.70;1.75;;;11.60;91.60;;;;;;5134941;28;20057;-75
2022/12/20 09:42:27;;;;;;;3.08;2.05;;;11.60;91.60;;;;;;5133910;28;20031;-75
2022/12/20 09:44:59;;;;;;;1.17;1.02;;;11.60;91.70;;;;;;5134720;28;20118;-76
2022/12/20 09:47:26;;;;;;;1.90;1.23;;;11.60;91.60;;;;;;5134713;28;20071;-75
2022/12/20 09:49:55;;;;;;;3.45;1.50;;;11.70;91.90;;;;;;5134531;28;20024;-75
2022/12/20 09:52:45;;;;;;;2.35;1.50;;;11.70;91.80;;;;;;5134635;28;20053;-75
2022/12/20 09:55:21;;;;;;;2.58;1.10;;;11.70;91.80;;;;;;5134775;27;20023;-75
2022/12/20 09:57:50;;;;;;;4.15;1.50;;;11.70;91.70;;;;;;5134536;28;20030;-75
2022/12/20 10:00:18;;;;;;;3.15;1.63;;;11.80;91.80;;;;;;5133462;28;20026;-75
2022/12/20 10:02:44;;;;;;;2.45;1.23;;;11.80;91.70;;;;;;5134407;28;20030;-75
2022/12/20 10:05:29;;;;;;;2.95;1.52;;;11.80;91.30;;;;;;5133327;28;20040;-74
2022/12/20 10:08:02;;;;;;;2.95;1.38;;;11.90;91.70;;;;;;5134236;28;20030;-75
2022/12/20 10:10:46;;;;;;;3.33;1.30;;;11.90;91.40;;;;;;5132948;28;20040;-75
2022/12/20 10:13:28;;;;;;;2.78;1.17;;;11.90;91.00;;;;;;5133327;28;20380;-75
2022/12/20 10:16:15;;;;;;;2.20;1.30;;;12.00;90.60;;;;;;5134393;28;20027;-75
2022/12/20 10:18:55;;;;;;;1.45;0.80;;;12.00;90.80;;;;;;5133189;28;20020;-75
2022/12/20 10:21:37;;;;;;;3.10;1.55;;;12.00;90.50;;;;;;5134321;28;20019;-75
2022/12/20 10:24:29;;;;;;;3.40;1.07;;;12.00;90.40;;;;;;5134336;28;20023;-75
2022/12/20 10:26:56;;;;;;;2.85;1.30;;;12.00;90.40;;;;;;5133157;28;20027;-75
2022/12/20 10:29:22;;;;;;;3.10;1.35;;;12.00;90.40;;;;;;5133995;28;20032;-75
2022/12/20 10:31:57;;;;;;;1.20;1.10;;;12.00;90.40;;;;;;5134083;28;20079;-75
2022/12/20 10:34:23;;;;;;;2.25;1.17;;;12.00;90.40;;;;;;5134063;28;20019;-75
2022/12/20 10:37:10;;;;;;;2.72;1.70;;;12.10;90.20;;;;;;5133999;28;20087;-75
2022/12/20 10:39:50;;;;;;;3.75;0.98;;;12.00;90.40;;;;;;5133980;28;20027;-76
2022/12/20 10:42:38;;;;;;;3.03;1.38;;;12.10;90.40;;;;;;5133944;28;20053;-75
2022/12/20 10:45:18;;;;;;;3.15;1.40;;;12.10;90.30;;;;;;5133929;28;20016;-75
2022/12/20 10:47:46;;;;;;;1.77;1.15;;;12.20;90.10;;;;;;5133805;28;20042;-75
2022/12/20 10:50:15;;;;;;;3.83;1.42;;;12.20;90.00;;;;;;5133755;28;20019;-75
2022/12/20 10:52:42;;;;;;;2.08;1.10;;;12.20;90.20;;;;;;5134049;28;20012;-75
2022/12/20 10:55:32;;;;;;;1.58;0.77;;;12.20;89.90;;;;;;5137307;28;20096;-75
2022/12/20 10:58:20;;;;;;;3.75;1.40;;;12.20;89.20;;;;;;5138093;28;20020;-75
2022/12/20 11:00:48;;;;;;;2.75;1.27;;;12.30;90.00;;;;;;5137949;28;20152;-75
2022/12/20 11:03:21;;;;;;;2.70;1.20;;;12.30;90.20;;;;;;5138043;28;20020;-76
2022/12/20 11:06:03;;;;;;;4.00;1.10;;;12.30;90.60;;;;;;5138056;28;20019;-75
2022/12/20 11:08:31;;;;;;;2.70;1.60;;;12.20;91.20;;;;;;5137658;28;20028;-75
2022/12/20 11:11:29;;;;;;;2.78;1.60;;;12.10;91.70;;;;;;5137430;28;20050;-76
2022/12/20 11:14:13;;;;;;;3.60;1.02;;;12.10;92.30;;;;;;5137792;28;20096;-76
2022/12/20 11:16:39;;;;;;;2.58;1.60;;;11.90;92.50;;;;;;5137674;28;20016;-76
2022/12/20 11:19:26;;;;;;;2.60;1.52;;;11.90;92.90;;;;;;5137578;28;20031;-76
2022/12/20 11:22:29;;;;;;;2.30;1.13;;;11.90;93.10;;;;;;5137558;28;20058;-76
2022/12/20 11:25:06;;;;;;;1.77;1.10;;;11.80;93.20;;;;;;5137441;28;20089;-76
2022/12/20 11:28:09;;;;;;;3.88;1.80;;;11.80;93.40;;;;;;5137493;27;20023;-76
2022/12/20 11:31:04;;;;;;;1.80;1.15;;;11.80;93.50;;;;;;5137416;27;20030;-76
2022/12/20 11:33:54;;;;;;;2.10;1.50;;;11.70;93.50;;;;;;5114565;28;20027;-76
2022/12/20 11:36:28;;;;;;;2.17;1.10;;;11.70;93.70;;;;;;5136014;28;20023;-76
2022/12/20 11:39:02;;;;;;;2.90;1.42;;;11.70;93.90;;;;;;5136191;28;20039;-76
2022/12/20 11:41:41;;;;;;;3.00;1.58;;;11.70;94.00;;;;;;5137332;28;20034;-76
2022/12/20 11:44:19;;;;;;;2.42;1.60;;;11.70;94.20;;;;;;5137141;28;20023;-76
2022/12/20 11:47:02;;;;;;;4.40;1.60;;;11.70;94.30;;;;;;5136932;28;20048;-76
2022/12/20 11:49:40;;;;;;;;;;;11.70;94.30;;;;;;5137309;28;20035;-76
2022/12/20 11:52:22;;;;;;;2.45;1.63;;;11.70;94.50;;;;;;5136761;28;20033;-76
2022/12/20 11:54:51;;;;;;;;;;;11.70;94.50;;;;;;5137404;28;20035;-76
2022/12/20 11:57:25;;;;;;;2.60;1.23;;;11.70;94.70;;;;;;5136877;28;19903;-76
2022/12/20 12:00:01;;;;;;;5.15;1.80;;;11.60;94.80;;;;;;5136902;28;20015;-77
2022/12/20 12:02:48;;;;;;;2.25;1.55;;;11.60;95.10;;;;;;5136760;28;20034;-76
2022/12/20 12:05:37;;;;;;;3.03;1.70;;;11.70;95.10;;;;;;5135570;28;20047;-76
2022/12/20 12:08:11;;;;;;;5.03;1.75;;;11.60;95.20;;;;;;5135852;28;20028;-75
2022/12/20 12:10:43;;;;;;;1.80;1.17;;;11.70;95.10;;;;;;5136439;28;20027;-75
2022/12/20 12:13:25;;;;;;;6.43;1.98;;;11.70;95.10;;;;;;5136594;28;20023;-76
2022/12/20 12:16:11;;;;;;;2.55;1.60;;;11.70;95.10;;;;;;5136707;28;20087;-75
2022/12/20 12:18:39;;;;;;;2.88;1.20;;;11.60;95.20;;;;;;5136368;28;20035;-75
2022/12/20 12:21:11;;;;;;;3.88;1.80;;;11.60;95.30;;;;;;5136392;27;20035;-75
2022/12/20 12:23:55;;;;;;;5.38;1.95;;;11.60;95.50;;;;;;5136448;28;20088;-75
2022/12/20 12:26:39;;;;;;;3.03;1.50;;;11.60;95.60;;;;;;5136266;28;20079;-76
2022/12/20 12:29:08;;;;;;;3.78;2.00;;;11.60;95.80;;;;;;5135291;28;20035;-75
2022/12/20 12:32:06;;;;;;;2.97;1.38;;;11.60;95.80;;;;;;5136161;28;20020;-75
2022/12/20 12:35:07;;;;;;;3.97;1.60;;;11.60;96.00;;;;;;5136308;28;20028;-75
2022/12/20 12:37:56;;;;;;;2.60;1.40;;;11.60;96.10;;;;;;5136198;28;20024;-75
2022/12/20 12:40:40;;;;;;;9.30;2.30;;;11.60;96.20;;;;;;5135980;28;20076;-75
2022/12/20 12:43:41;;;;;;;3.83;2.05;;;11.60;96.10;;;;;;5136138;28;20035;-75
2022/12/20 12:46:11;;;;;;;4.18;2.33;;;11.60;96.10;;;;;;5135965;27;20028;-75
2022/12/20 12:48:53;;;;;;;4.72;1.90;;;11.60;96.10;;;;;;5134834;28;20118;-75
2022/12/20 12:51:33;;;;;;;5.05;2.03;;;11.60;96.10;;;;;;5135877;28;20034;-75
2022/12/20 12:54:22;;;;;;;3.08;2.03;;;11.60;96.20;;;;;;5135569;28;20075;-75
2022/12/20 12:56:49;;;;;;;4.75;2.15;;;11.60;96.20;;;;;;5134412;28;20047;-76
2022/12/20 12:59:45;;;;;;;2.65;1.60;;;11.70;96.20;;;;;;5135554;28;20024;-75
2022/12/20 13:02:14;;;;;;;3.88;1.75;;;11.60;96.20;;;;;;5135720;28;20043;-76
2022/12/20 13:04:55;;;;;;;2.42;1.48;;;11.60;96.20;;;;;;5135564;28;20038;-75
2022/12/20 13:07:32;;;;;;;3.60;2.00;;;11.60;96.20;;;;;;5135440;28;20042;-75
2022/12/20 13:10:00;;;;;;;5.47;1.35;;;11.60;96.20;;;;;;5135514;28;20031;-76